Hope Airport
CYHE : rendu visible

Aérodrome :











RETROUVEZ-NOUS SUR...

 
LOGIN :

S'inscrire | Disclaimer

   EN    FR    IT 

 









Légende :    VFR   VFR Marginal   IFR   IFR Intensif   IFR Très Intensif
Visi : 
Plafond : 
>= 8 km
>= 3000ft
5 à 8 km
1000 à 3000 ft
1500m à 5 km
500 à 1000 ft
800 à 1500m
200 à 500 ft
< 800m
< 200 ft
Symboles :   Orages  Brouillard  Fortes neiges  Fortes précipitations  Vent > 20 kt






- Altitude de l'aérodrome : 128 ft
- Code IATA : YHE


CYHE - Hope

DERNIER METAR :
  • 190200Z AUTO 10007KT 9SM BKN041 OVC085 M05/M08 A3027 RMK SLP253

METARs EXPIRÉS :
  • 190100Z AUTO 10011KT 9SM FEW075 M06/M08 A3024 RMK SLP244
  • 190000Z AUTO 09008KT 9SM FEW042 SCT080 M05/M08 A3024 RMK SLP245
  • 182331Z AUTO 10010KT 9SM BKN036 BKN044 OVC080 M05/M07 A3024 RMK SLP245
  • 182300Z AUTO 10009KT 7SM -SN OVC040 M05/M07 A3023 RMK SLP242

TAF N/A



MET'MAP, la Météo Aéronautique d'un coup d'oeil ! - Copyright ORBIFLY Décembre 2007 - Disclaimer

ORBIFLY MET'MAP TEAM :

Programmation & Développement : Alexandra Zaïnal
Sur une idée originale de : Baudouin d'Aumeries
Assistance à la programmation : Marc-Olivier Méhu
Soutien technique & logistique : Manuel Goepfert

Contact : metmap@orbifly.com




SOURCES & CREDITS :

   NOAA       Earth
Advisory